Portada
METAR-TAF:

METAR-TAF

Aeropuertos :

Hofu, Japón

latitud: 34-02N, longitud: 131-33E, altitud: 2 m

Observación

El informe se hizo hace 17 horas y 27 minutos, a las 08:39 UTC
Viento 7 kt del oeste-noroeste
Temperatura 4°C
Humedad 60%
Presión 1025 hPa
Visibilidad 10 km o más
Escasas nubes a una altura de 2500 ft
Nubes dispersas a una altura de 3500 ft

METAR: RJOF 180839Z 30007KT 9999 FEW025 SCT035 04/M03 Q1025 RMK 1CU025 3CU035 A3029

Hora: 11:06 (02:06 UTC)


TAF: falta

Observaciones y pronósticos meteorológicos de más de 4000 aeropuertos (mensajes METAR y TAF).

Los puntos amarillos y rojos representan las estaciones disponibles.

Ponga el ratón en el punto deseado para ver el nombre de la estación.

Haga clic para ver las observaciones y los pronósticos meteorológicos.

Para cambiar el mapa : haga clic en los botones verdes con una cruz de color negro para hacer un zoom, en el botón verde con un guión para alejar o en las flechas verdes para mapas adyacentes.


METAR-TAF: